Time;durP1;ratioP1;P1;durP2;ratioP2;P2;SDS_P1;SDS_P2;PMS_P1;PMS_P2;Temp;Humidity;BMP_temperature;BMP_pressure;BME280_temperature;BME280_humidity;BME280_pressure;Samples;Min_cycle;Max_cycle;Signal;HPM_P1;HPM_P2
2021/05/07 00:00:48;;;;;;;1.55;1.45;;;6.40;99.90;;;;;;4973069;28;20057;-92
2021/05/07 00:03:50;;;;;;;1.70;1.60;;;6.40;99.90;;;;;;4973290;28;20137;-93
2021/05/07 00:07:02;;;;;;;;;;;;;;;;;;;;;
2021/05/07 00:09:57;;;;;;;3.17;1.98;;;6.30;99.90;;;;;;4993348;28;20049;-92
2021/05/07 00:12:37;;;;;;;;;;;6.30;99.90;;;;;;5005198;28;20468;-91
2021/05/07 00:15:55;;;;;;;;;;;;;;;;;;;;;
2021/05/07 00:18:53;;;;;;;2.58;1.65;;;6.50;99.90;;;;;;5006108;28;20132;-91
2021/05/07 00:22:07;;;;;;;1.80;1.70;;;6.50;99.90;;;;;;5019495;28;20509;-92
2021/05/07 00:28:27;;;;;;;1.88;1.60;;;6.50;99.90;;;;;;5015984;28;20138;-91
2021/05/07 00:34:19;;;;;;;;;;;;;;;;;;;;;
2021/05/07 00:37:44;;;;;;;;;;;;;;;;;;;;;
2021/05/07 00:40:36;;;;;;;1.50;1.40;;;6.70;99.90;;;;;;4971910;28;20105;-93
2021/05/07 00:43:03;;;;;;;1.70;1.60;;;6.70;99.90;;;;;;4991342;28;20053;-91
2021/05/07 00:46:13;;;;;;;1.45;1.35;;;6.70;99.90;;;;;;4898449;29;20061;-90
2021/05/07 00:49:17;;;;;;;;;;;;;;;;;;;;;
2021/05/07 00:52:10;;;;;;;1.55;1.45;;;6.70;99.90;;;;;;4904657;29;20238;-91
2021/05/07 00:55:04;;;;;;;1.30;1.20;;;6.70;99.90;;;;;;4930583;29;20138;-90
2021/05/07 00:57:39;;;;;;;1.55;1.45;;;6.60;99.90;;;;;;4970630;29;20331;-90
2021/05/07 01:00:08;;;;;;;2.17;1.35;;;6.60;99.90;;;;;;4953011;29;20544;-92
2021/05/07 01:02:43;;;;;;;1.60;1.50;;;6.60;99.90;;;;;;4970428;28;20061;-93
2021/05/07 01:05:11;;;;;;;1.40;1.30;;;6.60;99.90;;;;;;5017471;28;20128;-90
2021/05/07 01:07:39;;;;;;;1.60;1.33;;;6.60;99.90;;;;;;5018067;28;20133;-92
2021/05/07 01:10:09;;;;;;;1.80;1.70;;;6.60;99.90;;;;;;5027596;28;20050;-92
2021/05/07 01:12:38;;;;;;;1.70;1.60;;;6.50;99.90;;;;;;5029546;28;20089;-92
2021/05/07 01:15:10;;;;;;;2.05;1.90;;;6.50;99.90;;;;;;5026844;28;20058;-91
2021/05/07 01:17:43;;;;;;;2.25;2.05;;;6.50;99.90;;;;;;5018950;28;20104;-91
2021/05/07 01:20:23;;;;;;;2.10;1.90;;;6.50;99.90;;;;;;5027957;28;20049;-91
2021/05/07 01:22:55;;;;;;;1.42;1.33;;;6.40;99.90;;;;;;5035200;28;20512;-91
2021/05/07 01:25:25;;;;;;;1.33;1.23;;;6.40;99.90;;;;;;5019513;28;20081;-91
2021/05/07 01:27:58;;;;;;;2.08;1.30;;;6.40;99.90;;;;;;5007494;28;20053;-92
2021/05/07 01:30:26;;;;;;;1.35;1.30;;;6.40;99.90;;;;;;5010550;28;20042;-90
2021/05/07 01:32:53;;;;;;;1.50;1.40;;;6.40;99.90;;;;;;5034855;28;20061;-91
2021/05/07 01:35:26;;;;;;;1.40;1.30;;;6.40;99.90;;;;;;5036666;28;20137;-91
2021/05/07 01:37:56;;;;;;;1.30;1.20;;;6.30;99.90;;;;;;5022240;28;20050;-91
2021/05/07 01:40:24;;;;;;;1.00;1.00;;;6.30;99.90;;;;;;5025076;28;20114;-91
2021/05/07 01:42:55;;;;;;;1.40;1.30;;;6.30;99.90;;;;;;5015717;28;20405;-91
2021/05/07 01:45:24;;;;;;;0.93;0.93;;;6.30;99.90;;;;;;5015250;28;20042;-92
2021/05/07 01:47:51;;;;;;;0.90;0.90;;;6.30;99.90;;;;;;5014842;28;20407;-90
2021/05/07 01:50:20;;;;;;;1.08;1.08;;;6.20;99.90;;;;;;5016697;28;20060;-92
2021/05/07 01:52:47;;;;;;;1.02;0.95;;;6.20;99.90;;;;;;5015144;28;20116;-91
2021/05/07 01:55:51;;;;;;;1.23;1.10;;;6.20;99.90;;;;;;5029364;28;20053;-92
2021/05/07 01:58:20;;;;;;;0.90;0.90;;;6.20;99.90;;;;;;5011083;28;20053;-91
2021/05/07 02:00:55;;;;;;;0.90;0.90;;;6.20;99.90;;;;;;5026289;28;20057;-91
2021/05/07 02:03:40;;;;;;;1.27;1.00;;;6.10;99.90;;;;;;5012477;28;20118;-90
2021/05/07 02:13:55;;;;;;;;;;;;;;;;;;;;;
2021/05/07 02:17:30;;;;;;;;;;;;;;;;;;;;;
2021/05/07 04:01:10;;;;;;;2.25;1.40;;;5.50;99.90;;;;;;6251559;23;20020;-92
2021/05/07 04:04:21;;;;;;;1.35;1.25;;;5.50;99.90;;;;;;6106382;23;20077;-92
2021/05/07 04:06:55;;;;;;;1.50;1.40;;;5.50;99.90;;;;;;6120013;23;20018;-91
2021/05/07 04:10:29;;;;;;;2.35;1.40;;;5.50;99.90;;;;;;6124742;23;20311;-93
2021/05/07 04:15:39;;;;;;;3.30;3.00;;;5.50;99.90;;;;;;6120621;23;20022;-91
2021/05/07 04:18:10;;;;;;;4.57;3.80;;;5.50;99.90;;;;;;6126188;23;20096;-92
2021/05/07 04:20:40;;;;;;;2.65;2.05;;;5.50;99.90;;;;;;6138060;23;20026;-91
2021/05/07 04:23:07;;;;;;;3.50;1.60;;;5.40;99.90;;;;;;6256218;23;20020;-89
2021/05/07 04:25:36;;;;;;;1.65;1.30;;;5.40;99.90;;;;;;6210082;23;20052;-91
2021/05/07 04:28:04;;;;;;;2.72;1.05;;;5.30;99.90;;;;;;6260780;23;20063;-89
2021/05/07 04:30:34;;;;;;;2.17;1.50;;;5.10;99.90;;;;;;6225382;23;20024;-88
2021/05/07 04:33:03;;;;;;;0.98;0.90;;;5.10;99.90;;;;;;6222048;23;20020;-91
2021/05/07 04:35:30;;;;;;;0.90;0.90;;;5.10;99.90;;;;;;6247451;23;20075;-87
2021/05/07 04:46:04;;;;;;;4.22;1.60;;;4.90;99.90;;;;;;6083939;23;20029;-89
2021/05/07 04:48:31;;;;;;;1.95;1.00;;;4.90;99.90;;;;;;6123693;23;20022;-88
2021/05/07 04:50:57;;;;;;;1.25;1.17;;;4.90;99.90;;;;;;6123917;23;20022;-88
2021/05/07 04:53:24;;;;;;;1.20;1.10;;;4.80;99.90;;;;;;6248336;23;20079;-90
2021/05/07 04:55:50;;;;;;;1.40;1.30;;;4.80;99.90;;;;;;6199420;23;20284;-89
2021/05/07 04:58:20;;;;;;;2.97;1.20;;;4.80;99.90;;;;;;6216274;23;20031;-90
2021/05/07 05:00:49;;;;;;;1.38;1.10;;;4.80;99.90;;;;;;6243372;23;20047;-85
2021/05/07 05:03:17;;;;;;;1.55;1.00;;;4.80;99.90;;;;;;6219827;23;20442;-85
2021/05/07 05:05:43;;;;;;;1.38;1.25;;;4.80;99.90;;;;;;6244061;23;20114;-86
2021/05/07 05:08:10;;;;;;;2.55;1.10;;;4.80;99.90;;;;;;6243738;23;20024;-84
2021/05/07 05:10:37;;;;;;;1.38;1.20;;;4.90;99.90;;;;;;6216486;23;20091;-85
2021/05/07 05:13:03;;;;;;;1.27;1.17;;;4.90;99.90;;;;;;6243850;23;20020;-85
2021/05/07 05:15:32;;;;;;;2.78;1.33;;;4.90;99.90;;;;;;6191748;23;20020;-86
2021/05/07 05:18:01;;;;;;;1.40;1.20;;;4.80;99.90;;;;;;6243829;23;20088;-86
2021/05/07 05:20:27;;;;;;;0.93;0.93;;;4.80;99.90;;;;;;6243508;23;20074;-86
2021/05/07 05:22:54;;;;;;;1.27;1.17;;;4.80;99.90;;;;;;6242945;23;20692;-85
2021/05/07 05:25:20;;;;;;;4.93;1.30;;;4.80;99.90;;;;;;6243284;23;20719;-87
2021/05/07 05:27:50;;;;;;;1.33;1.23;;;4.80;99.90;;;;;;6242624;23;20047;-90
2021/05/07 05:30:17;;;;;;;1.25;1.15;;;4.90;99.90;;;;;;6243851;23;20028;-88
2021/05/07 05:32:45;;;;;;;1.30;1.20;;;4.90;99.90;;;;;;6216902;23;20043;-90
2021/05/07 05:35:17;;;;;;;1.40;1.30;;;4.90;99.90;;;;;;6245875;23;20038;-87
2021/05/07 05:37:45;;;;;;;1.20;1.20;;;5.00;99.90;;;;;;6218642;23;20050;-88
2021/05/07 05:40:12;;;;;;;2.25;1.10;;;5.00;99.90;;;;;;6244124;23;20104;-90
2021/05/07 05:42:40;;;;;;;1.38;1.27;;;5.10;99.90;;;;;;6243735;23;20497;-86
2021/05/07 05:45:25;;;;;;;1.25;1.15;;;5.10;99.90;;;;;;6216455;23;20099;-90
2021/05/07 05:48:04;;;;;;;1.30;1.20;;;5.10;99.90;;;;;;6248264;23;20051;-90
2021/05/07 05:51:35;;;;;;;;;;;;;;;;;;;;;
2021/05/07 05:55:10;;;;;;;;;;;;;;;;;;;;;
2021/05/07 06:02:22;;;;;;;;;;;;;;;;;;;;;
2021/05/07 06:05:20;;;;;;;1.00;1.00;;;5.50;99.90;;;;;;6059362;23;20264;-87
2021/05/07 06:08:12;;;;;;;1.15;1.15;;;5.60;99.90;;;;;;6037721;23;20106;-93
2021/05/07 06:11:22;;;;;;;1.00;1.00;;;5.70;99.90;;;;;;6023676;23;20035;-89
2021/05/07 06:14:06;;;;;;;3.00;1.33;;;5.60;99.90;;;;;;6038645;23;20019;-90
2021/05/07 06:16:50;;;;;;;2.78;2.35;;;5.60;99.90;;;;;;6133747;23;20025;-93
2021/05/07 06:19:48;;;;;;;2.97;2.67;;;5.60;99.90;;;;;;6048621;23;20152;-91
2021/05/07 06:22:43;;;;;;;2.40;2.20;;;5.70;99.90;;;;;;6051296;23;20053;-91
2021/05/07 06:25:50;;;;;;;2.65;2.28;;;5.70;99.90;;;;;;6077788;23;20082;-90
2021/05/07 06:31:37;;;;;;;4.00;3.60;;;5.80;99.90;;;;;;6083334;23;20036;-84
2021/05/07 06:38:54;;;;;;;5.72;3.13;;;5.90;99.90;;;;;;5980137;23;20032;-90
2021/05/07 06:41:38;;;;;;;4.80;3.80;;;5.80;99.90;;;;;;5955081;24;20020;-90
2021/05/07 06:44:05;;;;;;;3.80;3.40;;;5.80;99.90;;;;;;6165001;23;20643;-89
2021/05/07 06:47:40;;;;;;;;;;;;;;;;;;;;;
2021/05/07 06:50:24;;;;;;;5.78;3.42;;;6.00;99.90;;;;;;6095910;23;20081;-91
2021/05/07 06:52:53;;;;;;;5.97;4.10;;;5.90;99.90;;;;;;6093649;23;20034;-89
2021/05/07 06:56:25;;;;;;;;;;;;;;;;;;;;;
2021/05/07 06:59:50;;;;;;;3.95;2.45;;;5.80;99.90;;;;;;5972023;23;20091;-91
2021/05/07 07:03:02;;;;;;;5.00;2.05;;;5.60;99.90;;;;;;6039090;23;20019;-92
2021/05/07 07:05:35;;;;;;;2.45;2.10;;;5.60;99.90;;;;;;6012138;23;20019;-90
2021/05/07 07:16:22;;;;;;;3.40;3.10;;;5.70;99.90;;;;;;5849330;24;20026;-91
2021/05/07 08:29:26;;;;;;;10.98;9.38;;;6.00;99.90;;;;;;4751590;22;32710998;-91
2021/05/07 08:32:12;;;;;;;11.82;9.75;;;6.10;99.90;;;;;;6141641;23;20452;-91
2021/05/07 08:42:58;;;;;;;13.45;10.20;;;6.60;99.90;;;;;;6051248;23;20106;-91
2021/05/07 08:53:29;;;;;;;6.25;5.35;;;10.00;99.90;;;;;;5988532;23;20086;-89
2021/05/07 08:55:55;;;;;;;6.68;4.78;;;12.00;99.90;;;;;;5959992;23;20003;-84
2021/05/07 08:59:35;;;;;;;5.68;4.10;;;12.70;99.90;;;;;;6085337;23;20329;-89
2021/05/07 09:02:38;;;;;;;;;;;;;;;;;;;;;
2021/05/07 09:31:53;;;;;;;;;;;;;;;;;;;;;
2021/05/07 09:35:28;;;;;;;3.72;3.30;;;12.80;99.90;;;;;;6037575;23;20443;-92
2021/05/07 09:38:22;;;;;;;5.95;3.15;;;13.70;91.60;;;;;;6166537;23;20333;-89
2021/05/07 09:41:21;;;;;;;4.43;3.17;;;14.70;83.50;;;;;;6187463;23;20024;-89
2021/05/07 09:44:45;;;;;;;;;;;;;;;;;;;;;
2021/05/07 09:50:53;;;;;;;6.18;3.08;;;16.60;62.60;;;;;;6072292;23;20023;-89
2021/05/07 09:54:30;;;;;;;;;;;;;;;;;;;;;
2021/05/07 10:00:32;;;;;;;3.38;3.08;;;14.10;66.60;;;;;;5992750;23;20034;-89
2021/05/07 10:03:49;;;;;;;4.28;3.20;;;12.80;70.80;;;;;;6009130;23;20027;-90
2021/05/07 10:07:07;;;;;;;7.63;3.63;;;12.00;77.60;;;;;;6014231;23;20051;-90
2021/05/07 10:09:35;;;;;;;5.30;4.00;;;11.30;85.10;;;;;;6058934;23;20683;-85
2021/05/07 10:12:06;;;;;;;5.97;4.10;;;10.80;93.00;;;;;;6122508;23;20037;-86
2021/05/07 10:14:39;;;;;;;4.20;3.80;;;10.50;97.80;;;;;;6155702;23;20096;-86
2021/05/07 10:17:12;;;;;;;3.88;3.13;;;11.30;99.40;;;;;;6155818;23;20025;-87
2021/05/07 10:19:47;;;;;;;5.13;3.22;;;13.20;92.40;;;;;;6155703;23;20501;-87
2021/05/07 10:22:27;;;;;;;3.50;2.90;;;14.80;75.00;;;;;;6155779;23;20104;-86
2021/05/07 10:24:54;;;;;;;3.25;2.33;;;16.20;65.70;;;;;;6212070;23;20050;-85
2021/05/07 10:27:26;;;;;;;5.03;3.00;;;16.90;60.10;;;;;;6249512;23;20023;-89
2021/05/07 10:29:55;;;;;;;4.07;2.88;;;17.20;55.60;;;;;;6225231;23;20031;-89
2021/05/07 10:32:37;;;;;;;4.47;2.90;;;17.30;54.60;;;;;;6246762;22;20020;-89
2021/05/07 10:35:08;;;;;;;2.88;2.58;;;17.90;54.80;;;;;;6244937;23;20024;-89
2021/05/07 10:37:47;;;;;;;4.57;2.78;;;17.50;50.80;;;;;;6224137;23;20712;-87
2021/05/07 10:40:33;;;;;;;3.90;3.13;;;16.10;50.80;;;;;;6247073;23;20024;-87
2021/05/07 10:43:01;;;;;;;5.15;3.42;;;13.90;55.00;;;;;;6246049;22;20323;-87
2021/05/07 10:45:42;;;;;;;5.32;3.00;;;12.80;61.20;;;;;;6244856;23;20039;-86
2021/05/07 10:48:17;;;;;;;4.15;2.75;;;11.80;60.00;;;;;;6244808;23;20070;-89
2021/05/07 10:50:46;;;;;;;5.78;3.22;;;11.90;60.80;;;;;;6245211;22;20017;-88
2021/05/07 10:53:25;;;;;;;6.05;2.80;;;13.50;58.00;;;;;;6245366;23;20154;-88
2021/05/07 10:55:55;;;;;;;2.97;2.67;;;14.80;56.40;;;;;;6246894;22;20016;-88
2021/05/07 10:58:35;;;;;;;2.83;2.50;;;15.60;53.70;;;;;;6247680;22;20473;-88
2021/05/07 11:01:26;;;;;;;3.58;3.15;;;14.60;51.40;;;;;;6246614;22;20016;-88
2021/05/07 11:04:19;;;;;;;3.38;2.75;;;13.10;56.20;;;;;;6230199;23;20095;-89
2021/05/07 11:06:48;;;;;;;3.53;3.20;;;12.70;57.40;;;;;;6241767;22;20367;-86
2021/05/07 11:09:18;;;;;;;3.80;3.08;;;12.20;60.90;;;;;;6246212;23;20032;-84
2021/05/07 11:11:45;;;;;;;3.05;2.65;;;12.00;63.60;;;;;;6247475;23;20024;-86
2021/05/07 11:14:17;;;;;;;4.10;2.88;;;11.80;65.80;;;;;;6251083;23;20024;-86
2021/05/07 11:16:45;;;;;;;3.20;2.90;;;11.70;63.10;;;;;;6255506;22;20023;-87
2021/05/07 11:19:26;;;;;;;5.20;2.95;;;11.90;62.80;;;;;;6260282;22;20126;-87
2021/05/07 11:22:05;;;;;;;4.35;2.95;;;12.80;60.00;;;;;;6259598;22;20016;-88
2021/05/07 11:24:43;;;;;;;5.68;3.53;;;13.70;59.80;;;;;;6256671;22;20016;-88
2021/05/07 11:27:20;;;;;;;3.90;2.92;;;13.60;55.90;;;;;;6246966;22;20408;-87
2021/05/07 11:29:49;;;;;;;4.30;3.10;;;13.30;57.60;;;;;;6250876;22;20089;-87
2021/05/07 11:32:21;;;;;;;6.85;3.58;;;13.00;55.50;;;;;;6258702;23;20415;-86
2021/05/07 11:34:57;;;;;;;4.68;3.65;;;12.30;56.30;;;;;;6258136;23;20084;-86
2021/05/07 11:37:25;;;;;;;5.95;3.90;;;11.60;59.50;;;;;;6260554;23;20024;-87
2021/05/07 11:40:03;;;;;;;5.43;3.58;;;11.60;60.40;;;;;;6234615;23;20024;-87
2021/05/07 11:42:43;;;;;;;4.85;3.60;;;12.70;60.60;;;;;;6265314;22;20036;-88
2021/05/07 11:45:22;;;;;;;6.32;3.30;;;13.70;58.50;;;;;;6258692;23;20461;-87
2021/05/07 11:47:49;;;;;;;7.22;3.08;;;14.80;57.80;;;;;;6250019;23;20066;-86
2021/05/07 11:50:18;;;;;;;6.63;2.80;;;16.40;54.50;;;;;;6220761;23;20291;-87
2021/05/07 11:52:50;;;;;;;4.80;2.85;;;17.60;51.30;;;;;;6244393;23;20028;-87
2021/05/07 11:55:20;;;;;;;3.88;3.03;;;18.40;48.90;;;;;;6217865;23;20032;-85
2021/05/07 11:58:07;;;;;;;3.15;2.67;;;19.10;46.20;;;;;;6243606;23;20020;-84
2021/05/07 12:00:36;;;;;;;4.45;2.80;;;19.50;44.20;;;;;;6245353;23;20020;-85
2021/05/07 12:03:06;;;;;;;3.30;2.55;;;19.20;44.30;;;;;;6245325;23;20024;-84
2021/05/07 12:05:38;;;;;;;3.10;2.35;;;18.50;44.30;;;;;;6218727;23;20583;-85
2021/05/07 12:08:09;;;;;;;3.55;2.60;;;17.50;46.10;;;;;;6217988;23;20045;-85
2021/05/07 12:10:42;;;;;;;6.10;2.80;;;17.20;47.60;;;;;;6216016;23;20020;-84
2021/05/07 12:13:20;;;;;;;4.20;2.72;;;17.00;46.90;;;;;;6244091;23;20323;-84
2021/05/07 12:15:51;;;;;;;3.80;2.78;;;17.70;46.20;;;;;;6244390;23;20078;-85
2021/05/07 12:18:24;;;;;;;4.65;2.40;;;16.90;45.10;;;;;;6217127;23;20020;-84
2021/05/07 12:20:57;;;;;;;3.10;2.67;;;16.00;45.90;;;;;;6217813;23;20074;-83
2021/05/07 12:23:40;;;;;;;3.97;2.92;;;14.20;47.90;;;;;;6244300;23;20028;-85
2021/05/07 12:26:06;;;;;;;;;;;13.00;51.80;;;;;;6245112;23;20023;-84
2021/05/07 12:28:37;;;;;;;3.78;3.10;;;12.30;53.20;;;;;;6243546;23;19923;-83
2021/05/07 12:31:06;;;;;;;4.85;3.05;;;11.80;54.70;;;;;;6244279;23;20091;-83
2021/05/07 12:33:37;;;;;;;4.28;2.78;;;11.90;53.70;;;;;;6243594;23;20027;-83
2021/05/07 12:36:15;;;;;;;4.03;3.08;;;11.90;52.80;;;;;;6244214;23;20020;-85
2021/05/07 12:38:42;;;;;;;2.67;2.33;;;11.90;53.40;;;;;;6243737;23;20016;-85
2021/05/07 12:41:23;;;;;;;3.35;2.60;;;11.90;54.00;;;;;;6218395;23;20454;-84
2021/05/07 12:43:50;;;;;;;3.45;2.70;;;11.90;53.80;;;;;;6240509;22;20028;-84
2021/05/07 12:46:23;;;;;;;4.07;2.80;;;11.70;54.30;;;;;;6268927;22;20052;-85
2021/05/07 12:48:53;;;;;;;4.13;3.00;;;11.60;55.70;;;;;;6257104;23;20052;-85
2021/05/07 12:51:23;;;;;;;3.53;2.90;;;11.40;55.60;;;;;;6225564;23;20046;-85
2021/05/07 12:53:51;;;;;;;3.47;2.90;;;12.00;54.80;;;;;;6244065;23;20054;-83
2021/05/07 12:56:20;;;;;;;4.53;3.08;;;12.80;54.20;;;;;;6218567;23;20098;-84
2021/05/07 12:58:49;;;;;;;3.17;2.65;;;14.60;52.50;;;;;;6247692;23;20024;-85
2021/05/07 13:01:15;;;;;;;2.80;2.38;;;16.30;48.50;;;;;;6251491;23;20020;-85
2021/05/07 13:03:47;;;;;;;2.83;2.10;;;18.20;45.80;;;;;;6247944;23;20020;-84
2021/05/07 13:06:13;;;;;;;4.43;2.20;;;19.50;41.20;;;;;;6245144;23;20035;-87
2021/05/07 13:08:40;;;;;;;4.25;2.40;;;19.50;39.00;;;;;;6216862;23;20028;-85
2021/05/07 13:11:12;;;;;;;3.45;2.30;;;17.80;40.80;;;;;;6242634;23;20412;-84
2021/05/07 13:13:41;;;;;;;7.47;2.83;;;15.90;44.20;;;;;;6216423;23;20032;-85
2021/05/07 13:16:10;;;;;;;3.65;2.60;;;15.10;46.90;;;;;;6216336;23;20146;-84
2021/05/07 13:18:38;;;;;;;6.00;2.53;;;14.70;48.60;;;;;;6242576;23;20020;-85
2021/05/07 13:21:05;;;;;;;3.50;2.40;;;15.50;47.00;;;;;;6243441;23;20066;-85
2021/05/07 13:23:39;;;;;;;4.78;2.28;;;16.90;44.90;;;;;;6243813;23;20047;-85
2021/05/07 13:26:08;;;;;;;3.90;2.58;;;17.10;43.10;;;;;;6218026;23;20016;-85
2021/05/07 13:28:35;;;;;;;3.67;2.30;;;16.90;43.50;;;;;;6243498;23;20611;-84
2021/05/07 13:31:08;;;;;;;3.50;2.58;;;16.70;45.00;;;;;;6243188;23;20298;-85
2021/05/07 13:33:37;;;;;;;3.45;2.55;;;17.00;44.30;;;;;;6218038;23;20307;-84
2021/05/07 13:36:14;;;;;;;5.40;2.60;;;16.70;44.80;;;;;;6243920;23;20021;-84
2021/05/07 13:38:42;;;;;;;2.15;1.83;;;17.20;44.50;;;;;;6216794;23;20021;-86
2021/05/07 13:41:11;;;;;;;4.85;2.38;;;17.30;41.60;;;;;;6243890;23;20054;-84
2021/05/07 13:43:38;;;;;;;5.20;2.10;;;17.70;41.80;;;;;;6243970;23;20081;-84
2021/05/07 13:46:05;;;;;;;3.20;2.15;;;17.20;40.70;;;;;;6244887;23;20078;-84
2021/05/07 13:48:32;;;;;;;5.38;2.40;;;17.50;40.20;;;;;;6244981;23;20576;-85
2021/05/07 13:51:01;;;;;;;3.78;1.85;;;16.00;42.50;;;;;;6268117;22;20035;-84
2021/05/07 13:53:28;;;;;;;3.58;2.40;;;15.00;45.40;;;;;;6266885;22;20016;-84
2021/05/07 13:55:55;;;;;;;2.20;2.00;;;14.10;48.90;;;;;;6256968;23;20367;-83
2021/05/07 13:58:23;;;;;;;3.10;2.00;;;14.40;49.20;;;;;;6257894;23;20016;-84
2021/05/07 14:00:53;;;;;;;3.45;2.70;;;15.00;48.20;;;;;;6250254;23;20069;-85
2021/05/07 14:03:21;;;;;;;3.90;2.38;;;14.70;48.20;;;;;;6245759;23;20093;-86
2021/05/07 14:05:53;;;;;;;2.53;1.90;;;14.20;48.60;;;;;;6244709;23;20024;-84
2021/05/07 14:08:20;;;;;;;3.40;2.00;;;13.60;48.30;;;;;;6245909;23;20038;-86
2021/05/07 14:10:47;;;;;;;3.58;1.98;;;12.90;50.30;;;;;;6251925;23;20030;-84
2021/05/07 14:13:13;;;;;;;4.25;1.83;;;12.70;51.70;;;;;;6229165;23;20020;-83
2021/05/07 14:15:42;;;;;;;3.10;1.88;;;13.80;51.50;;;;;;6254709;23;20020;-85
2021/05/07 14:18:09;;;;;;;3.08;1.60;;;15.10;48.30;;;;;;6246787;23;20020;-86
2021/05/07 14:20:36;;;;;;;2.88;1.95;;;15.10;48.10;;;;;;6245290;23;20030;-84
2021/05/07 14:23:06;;;;;;;3.70;1.92;;;14.50;47.60;;;;;;6241751;23;20034;-85
2021/05/07 14:25:33;;;;;;;3.10;1.80;;;13.60;50.10;;;;;;6243585;23;20642;-86
2021/05/07 14:28:07;;;;;;;3.00;1.80;;;13.20;51.20;;;;;;6217097;23;20315;-88
2021/05/07 14:30:46;;;;;;;2.83;1.50;;;13.20;50.70;;;;;;6225754;23;20449;-86
2021/05/07 14:33:15;;;;;;;1.95;1.40;;;14.20;51.10;;;;;;6242125;23;20035;-86
2021/05/07 14:35:42;;;;;;;1.77;1.23;;;15.90;48.30;;;;;;6243464;23;20020;-87
2021/05/07 14:38:11;;;;;;;2.35;1.60;;;17.60;44.00;;;;;;6244077;23;20031;-87
2021/05/07 14:40:44;;;;;;;3.17;1.30;;;18.60;42.40;;;;;;6240778;23;20320;-86
2021/05/07 14:43:16;;;;;;;4.78;1.17;;;19.00;38.80;;;;;;6241972;23;20024;-85
2021/05/07 14:45:42;;;;;;;6.13;1.60;;;18.30;35.80;;;;;;6242833;22;20486;-88
2021/05/07 14:48:09;;;;;;;2.97;1.10;;;18.60;36.40;;;;;;6241371;23;20019;-87
2021/05/07 14:50:38;;;;;;;6.20;1.55;;;18.70;36.30;;;;;;6241489;23;20030;-88
2021/05/07 14:53:05;;;;;;;2.22;1.05;;;19.30;36.00;;;;;;6241852;23;20097;-87
2021/05/07 14:55:32;;;;;;;2.75;1.40;;;19.90;36.50;;;;;;6243136;23;20043;-88
2021/05/07 14:58:01;;;;;;;2.60;1.38;;;19.70;34.20;;;;;;6243997;23;20024;-87
2021/05/07 15:00:34;;;;;;;4.65;1.83;;;19.50;35.20;;;;;;6241323;23;20072;-87
2021/05/07 15:03:05;;;;;;;3.42;1.52;;;19.50;35.90;;;;;;6241561;23;20395;-86
2021/05/07 15:05:32;;;;;;;3.10;1.40;;;19.10;35.90;;;;;;6241582;23;20024;-88
2021/05/07 15:08:08;;;;;;;5.13;1.60;;;18.00;36.40;;;;;;6242577;23;20406;-87
2021/05/07 15:10:35;;;;;;;4.07;1.38;;;16.40;39.70;;;;;;6242407;23;20023;-86
2021/05/07 15:13:01;;;;;;;3.28;1.65;;;16.10;41.40;;;;;;6243493;22;20024;-88
2021/05/07 15:15:28;;;;;;;5.50;1.92;;;16.70;40.40;;;;;;6243269;23;20020;-88
2021/05/07 15:18:00;;;;;;;3.63;1.42;;;17.60;39.50;;;;;;6241973;23;20035;-88
2021/05/07 15:20:29;;;;;;;2.65;1.50;;;18.00;38.50;;;;;;6243047;23;20054;-88
2021/05/07 15:23:13;;;;;;;4.18;1.85;;;18.60;38.70;;;;;;6244312;22;20028;-87
2021/05/07 15:25:39;;;;;;;2.55;1.50;;;19.10;35.80;;;;;;6242380;23;20091;-88
2021/05/07 15:28:06;;;;;;;7.22;2.85;;;18.10;36.60;;;;;;6244233;23;20028;-88
2021/05/07 15:30:35;;;;;;;3.53;1.63;;;16.10;38.70;;;;;;6241879;23;20024;-88
2021/05/07 15:33:05;;;;;;;3.17;1.70;;;14.70;42.50;;;;;;6245262;22;20020;-84
2021/05/07 15:35:34;;;;;;;2.70;1.70;;;14.50;44.40;;;;;;6247657;22;20024;-85
2021/05/07 15:38:02;;;;;;;2.38;1.80;;;15.30;43.90;;;;;;6246671;22;20174;-84
2021/05/07 15:40:34;;;;;;;3.40;1.50;;;15.00;43.00;;;;;;6246906;22;20082;-85
2021/05/07 15:43:04;;;;;;;4.13;1.55;;;14.70;45.20;;;;;;6245825;23;20016;-85
2021/05/07 15:45:31;;;;;;;2.80;1.30;;;14.60;45.00;;;;;;6244736;23;20027;-84
2021/05/07 15:48:00;;;;;;;4.25;1.70;;;15.00;44.30;;;;;;6245174;23;20074;-85
2021/05/07 15:50:31;;;;;;;3.10;1.70;;;16.30;40.00;;;;;;6246999;23;20099;-85
2021/05/07 15:53:02;;;;;;;2.30;1.42;;;17.30;38.50;;;;;;6245642;23;20020;-84
2021/05/07 15:55:29;;;;;;;4.43;1.60;;;18.40;37.10;;;;;;6244285;23;20038;-86
2021/05/07 15:57:56;;;;;;;5.20;1.33;;;19.00;35.30;;;;;;6247336;22;20024;-82
2021/05/07 16:00:27;;;;;;;2.20;1.63;;;18.90;35.30;;;;;;6253337;23;20046;-85
2021/05/07 16:02:58;;;;;;;3.22;1.50;;;18.80;35.90;;;;;;6256912;22;20020;-83
2021/05/07 16:05:30;;;;;;;2.05;1.33;;;18.00;35.10;;;;;;6255476;22;20264;-85
2021/05/07 16:08:01;;;;;;;3.50;1.60;;;17.10;36.10;;;;;;6259337;23;20026;-85
2021/05/07 16:10:33;;;;;;;2.95;1.70;;;17.00;37.40;;;;;;6261161;22;20106;-85
2021/05/07 16:12:59;;;;;;;3.83;1.77;;;16.80;37.60;;;;;;6262169;22;20075;-85
2021/05/07 16:15:33;;;;;;;2.17;1.50;;;16.40;37.10;;;;;;6256750;22;20020;-85
2021/05/07 16:18:02;;;;;;;2.95;1.83;;;15.90;37.90;;;;;;6246186;22;20023;-86
2021/05/07 16:20:31;;;;;;;3.00;1.48;;;15.40;40.00;;;;;;6245637;22;20122;-85
2021/05/07 16:23:18;;;;;;;2.83;1.70;;;15.10;39.70;;;;;;6245618;22;20331;-86
2021/05/07 16:25:45;;;;;;;4.82;2.08;;;15.00;39.80;;;;;;6242615;23;20051;-86
2021/05/07 16:28:18;;;;;;;4.05;1.80;;;14.80;41.30;;;;;;6242223;23;20530;-87
2021/05/07 16:30:45;;;;;;;2.97;1.83;;;14.60;41.30;;;;;;6242205;23;20389;-88
2021/05/07 16:33:14;;;;;;;3.25;1.70;;;14.30;41.90;;;;;;6244606;23;20020;-85
2021/05/07 16:36:00;;;;;;;3.45;2.60;;;13.80;42.40;;;;;;6245092;23;20119;-85
2021/05/07 16:40:59;;;;;;;;;;;12.70;45.20;;;;;;6245143;22;20124;-85
2021/05/07 16:43:28;;;;;;;3.72;1.98;;;12.60;43.50;;;;;;6244465;22;19915;-86
2021/05/07 16:45:55;;;;;;;3.70;1.92;;;12.70;43.30;;;;;;6249410;22;20051;-84
2021/05/07 16:48:24;;;;;;;3.40;1.75;;;12.80;43.20;;;;;;6249487;23;20027;-85
2021/05/07 16:50:51;;;;;;;3.60;1.85;;;12.50;44.10;;;;;;6254372;22;20403;-84
2021/05/07 16:53:17;;;;;;;2.90;1.60;;;12.30;45.10;;;;;;6249279;22;20395;-84
2021/05/07 16:55:43;;;;;;;6.35;2.58;;;11.90;44.50;;;;;;6247505;23;20024;-84
2021/05/07 16:58:12;;;;;;;2.88;1.88;;;11.50;45.70;;;;;;6244167;23;20032;-85
2021/05/07 17:00:41;;;;;;;5.10;2.40;;;11.30;47.60;;;;;;6242565;23;20332;-86
2021/05/07 17:03:07;;;;;;;4.10;2.08;;;11.00;48.70;;;;;;6241451;23;20020;-85
2021/05/07 17:05:34;;;;;;;3.92;2.15;;;10.80;47.90;;;;;;6242305;23;20016;-86
2021/05/07 17:08:01;;;;;;;5.85;2.40;;;10.80;49.30;;;;;;6243303;23;20427;-85
2021/05/07 17:10:28;;;;;;;3.08;2.00;;;10.70;49.80;;;;;;6244278;23;20109;-85
2021/05/07 17:12:57;;;;;;;4.55;2.40;;;10.70;49.80;;;;;;6244656;23;20090;-85
2021/05/07 17:15:23;;;;;;;3.63;2.70;;;10.60;50.70;;;;;;6245333;22;20058;-86
2021/05/07 17:17:52;;;;;;;3.17;2.88;;;10.60;49.70;;;;;;6245541;23;20032;-83
2021/05/07 17:20:19;;;;;;;3.63;2.15;;;10.50;50.00;;;;;;6259026;22;20020;-85
2021/05/07 17:22:46;;;;;;;4.47;2.28;;;10.40;51.20;;;;;;6268649;22;20020;-86
2021/05/07 17:25:18;;;;;;;4.45;2.15;;;10.30;52.10;;;;;;6257808;22;20019;-86
2021/05/07 17:27:45;;;;;;;3.45;2.22;;;10.20;51.20;;;;;;6250966;22;20035;-85
2021/05/07 17:30:12;;;;;;;4.65;2.53;;;10.20;51.80;;;;;;6241475;23;20054;-86
2021/05/07 17:32:40;;;;;;;3.88;2.10;;;10.20;52.30;;;;;;6243175;22;20253;-86
2021/05/07 17:35:07;;;;;;;2.85;1.90;;;10.20;52.00;;;;;;6243838;23;20043;-87
2021/05/07 17:37:33;;;;;;;2.10;1.65;;;10.10;50.90;;;;;;6243132;22;20075;-87
2021/05/07 17:40:01;;;;;;;4.47;2.38;;;10.10;51.50;;;;;;6241869;23;20371;-86
2021/05/07 17:42:28;;;;;;;4.22;1.98;;;10.10;53.10;;;;;;6245706;23;20020;-87
2021/05/07 17:44:55;;;;;;;4.00;2.30;;;10.00;54.20;;;;;;6245418;23;20061;-86
2021/05/07 17:47:21;;;;;;;3.88;2.10;;;9.90;54.60;;;;;;6245819;22;20300;-86
2021/05/07 17:49:53;;;;;;;4.88;3.50;;;9.80;54.60;;;;;;6243711;23;20170;-85
2021/05/07 17:52:19;;;;;;;3.70;2.85;;;9.70;54.60;;;;;;6244960;23;20441;-86
2021/05/07 17:54:47;;;;;;;6.38;3.38;;;9.70;54.30;;;;;;6245181;23;20024;-86
2021/05/07 17:57:13;;;;;;;4.80;3.20;;;9.60;54.10;;;;;;6246905;23;20032;-87
2021/05/07 17:59:43;;;;;;;2.60;2.25;;;9.60;54.30;;;;;;6250007;23;20031;-86
2021/05/07 18:02:11;;;;;;;4.63;2.40;;;9.50;54.80;;;;;;6249453;23;20024;-89
2021/05/07 18:04:39;;;;;;;4.40;2.25;;;9.50;55.40;;;;;;6247709;22;20107;-87
2021/05/07 18:07:06;;;;;;;3.83;2.60;;;9.40;55.30;;;;;;6246674;23;20500;-88
2021/05/07 18:09:33;;;;;;;3.65;2.40;;;9.40;55.40;;;;;;6245492;23;20050;-88
2021/05/07 18:12:01;;;;;;;3.00;2.15;;;9.30;55.60;;;;;;6253626;23;20024;-88
2021/05/07 18:14:31;;;;;;;5.05;2.60;;;9.30;55.90;;;;;;6254507;23;20023;-87
2021/05/07 18:17:12;;;;;;;4.68;2.85;;;9.10;56.30;;;;;;6257863;22;20020;-86
2021/05/07 18:19:39;;;;;;;4.10;2.78;;;9.10;56.90;;;;;;6254010;22;20264;-89
2021/05/07 18:22:06;;;;;;;6.80;2.97;;;9.00;57.20;;;;;;6246236;23;20091;-89
2021/05/07 18:24:35;;;;;;;5.07;2.60;;;8.90;57.60;;;;;;6243114;23;20038;-87